sensor_id;sensor_type;location;lat;lon;timestamp;P1;durP1;ratioP1;P2;durP2;ratioP2
24435;SDS011;12616;52.470;13.436;2023-12-20T00:01:58;9.80;;;8.18;;
24435;SDS011;12616;52.470;13.436;2023-12-20T00:04:25;9.38;;;7.50;;
24435;SDS011;12616;52.470;13.436;2023-12-20T00:06:52;8.32;;;7.53;;
24435;SDS011;12616;52.470;13.436;2023-12-20T00:09:19;9.40;;;8.13;;
24435;SDS011;12616;52.470;13.436;2023-12-20T00:11:46;8.20;;;7.40;;
24435;SDS011;12616;52.470;13.436;2023-12-20T00:14:14;9.68;;;8.38;;
24435;SDS011;12616;52.470;13.436;2023-12-20T00:16:41;9.05;;;8.15;;
24435;SDS011;12616;52.470;13.436;2023-12-20T00:19:10;8.40;;;7.57;;
24435;SDS011;12616;52.470;13.436;2023-12-20T00:21:37;10.20;;;8.35;;
24435;SDS011;12616;52.470;13.436;2023-12-20T00:24:04;10.02;;;8.05;;
24435;SDS011;12616;52.470;13.436;2023-12-20T00:26:31;9.20;;;8.23;;
24435;SDS011;12616;52.470;13.436;2023-12-20T00:29:01;8.68;;;7.63;;
24435;SDS011;12616;52.470;13.436;2023-12-20T00:31:30;9.07;;;8.10;;
24435;SDS011;12616;52.470;13.436;2023-12-20T00:33:57;11.05;;;8.00;;
24435;SDS011;12616;52.470;13.436;2023-12-20T00:36:24;8.27;;;7.47;;
24435;SDS011;12616;52.470;13.436;2023-12-20T00:38:51;8.55;;;7.65;;
24435;SDS011;12616;52.470;13.436;2023-12-20T00:41:18;8.57;;;7.03;;
24435;SDS011;12616;52.470;13.436;2023-12-20T00:43:44;8.30;;;7.10;;
24435;SDS011;12616;52.470;13.436;2023-12-20T00:46:11;8.30;;;7.43;;
24435;SDS011;12616;52.470;13.436;2023-12-20T00:48:40;7.90;;;7.05;;
24435;SDS011;12616;52.470;13.436;2023-12-20T00:51:14;8.25;;;6.78;;
24435;SDS011;12616;52.470;13.436;2023-12-20T00:53:41;9.40;;;7.75;;
24435;SDS011;12616;52.470;13.436;2023-12-20T00:56:08;8.88;;;7.43;;
24435;SDS011;12616;52.470;13.436;2023-12-20T00:58:35;7.47;;;6.72;;
24435;SDS011;12616;52.470;13.436;2023-12-20T01:01:02;7.05;;;6.43;;
24435;SDS011;12616;52.470;13.436;2023-12-20T01:03:29;5.95;;;5.35;;
24435;SDS011;12616;52.470;13.436;2023-12-20T01:05:57;6.35;;;5.75;;
24435;SDS011;12616;52.470;13.436;2023-12-20T01:08:24;7.40;;;6.60;;
24435;SDS011;12616;52.470;13.436;2023-12-20T01:10:51;8.20;;;7.00;;
24435;SDS011;12616;52.470;13.436;2023-12-20T01:13:18;8.00;;;7.10;;
24435;SDS011;12616;52.470;13.436;2023-12-20T01:15:45;7.43;;;6.68;;
24435;SDS011;12616;52.470;13.436;2023-12-20T01:18:13;5.85;;;5.25;;
24435;SDS011;12616;52.470;13.436;2023-12-20T01:20:40;6.60;;;6.00;;
24435;SDS011;12616;52.470;13.436;2023-12-20T01:23:09;8.87;;;6.77;;
24435;SDS011;12616;52.470;13.436;2023-12-20T01:25:36;7.28;;;6.00;;
24435;SDS011;12616;52.470;13.436;2023-12-20T01:28:03;7.35;;;6.38;;
24435;SDS011;12616;52.470;13.436;2023-12-20T01:30:30;7.45;;;6.07;;
24435;SDS011;12616;52.470;13.436;2023-12-20T01:32:57;7.20;;;6.50;;
24435;SDS011;12616;52.470;13.436;2023-12-20T01:35:26;6.90;;;6.20;;
24435;SDS011;12616;52.470;13.436;2023-12-20T01:37:52;6.10;;;5.47;;
24435;SDS011;12616;52.470;13.436;2023-12-20T01:40:23;6.60;;;6.00;;
24435;SDS011;12616;52.470;13.436;2023-12-20T01:42:57;7.80;;;6.47;;
24435;SDS011;12616;52.470;13.436;2023-12-20T01:45:24;6.13;;;5.63;;
24435;SDS011;12616;52.470;13.436;2023-12-20T01:47:51;7.10;;;6.30;;
24435;SDS011;12616;52.470;13.436;2023-12-20T01:50:18;6.55;;;5.88;;
24435;SDS011;12616;52.470;13.436;2023-12-20T01:52:46;8.07;;;6.05;;
24435;SDS011;12616;52.470;13.436;2023-12-20T01:55:13;7.00;;;5.83;;
24435;SDS011;12616;52.470;13.436;2023-12-20T01:57:43;4.97;;;4.47;;
24435;SDS011;12616;52.470;13.436;2023-12-20T02:00:12;6.85;;;5.82;;
24435;SDS011;12616;52.470;13.436;2023-12-20T02:02:40;5.72;;;5.22;;
24435;SDS011;12616;52.470;13.436;2023-12-20T02:05:09;7.80;;;6.15;;
24435;SDS011;12616;52.470;13.436;2023-12-20T02:07:37;5.90;;;5.20;;
24435;SDS011;12616;52.470;13.436;2023-12-20T02:10:04;5.63;;;5.13;;
24435;SDS011;12616;52.470;13.436;2023-12-20T02:12:33;6.03;;;4.95;;
24435;SDS011;12616;52.470;13.436;2023-12-20T02:15:01;6.53;;;5.90;;
24435;SDS011;12616;52.470;13.436;2023-12-20T02:17:28;7.30;;;5.03;;
24435;SDS011;12616;52.470;13.436;2023-12-20T02:19:57;6.23;;;5.13;;
24435;SDS011;12616;52.470;13.436;2023-12-20T02:22:25;6.43;;;5.83;;
24435;SDS011;12616;52.470;13.436;2023-12-20T02:24:52;5.82;;;5.10;;
24435;SDS011;12616;52.470;13.436;2023-12-20T02:27:19;6.20;;;5.60;;
24435;SDS011;12616;52.470;13.436;2023-12-20T02:29:48;6.40;;;5.80;;
24435;SDS011;12616;52.470;13.436;2023-12-20T02:32:15;5.68;;;4.82;;
24435;SDS011;12616;52.470;13.436;2023-12-20T02:34:43;6.15;;;5.57;;
24435;SDS011;12616;52.470;13.436;2023-12-20T02:37:10;7.10;;;5.87;;
24435;SDS011;12616;52.470;13.436;2023-12-20T02:39:38;5.95;;;5.35;;
24435;SDS011;12616;52.470;13.436;2023-12-20T02:42:05;7.00;;;5.97;;
24435;SDS011;12616;52.470;13.436;2023-12-20T02:44:32;7.00;;;6.07;;
24435;SDS011;12616;52.470;13.436;2023-12-20T02:46:59;7.27;;;6.60;;
24435;SDS011;12616;52.470;13.436;2023-12-20T02:49:26;8.80;;;6.57;;
24435;SDS011;12616;52.470;13.436;2023-12-20T02:51:53;8.63;;;7.75;;
24435;SDS011;12616;52.470;13.436;2023-12-20T02:54:20;9.57;;;7.70;;
24435;SDS011;12616;52.470;13.436;2023-12-20T02:56:48;8.90;;;7.47;;
24435;SDS011;12616;52.470;13.436;2023-12-20T02:59:15;8.70;;;6.37;;
24435;SDS011;12616;52.470;13.436;2023-12-20T03:01:42;9.53;;;7.53;;
24435;SDS011;12616;52.470;13.436;2023-12-20T03:04:10;8.37;;;7.47;;
24435;SDS011;12616;52.470;13.436;2023-12-20T03:06:37;9.87;;;7.63;;
24435;SDS011;12616;52.470;13.436;2023-12-20T03:09:04;9.57;;;7.30;;
24435;SDS011;12616;52.470;13.436;2023-12-20T03:11:31;8.43;;;7.20;;
24435;SDS011;12616;52.470;13.436;2023-12-20T03:13:59;6.65;;;5.90;;
24435;SDS011;12616;52.470;13.436;2023-12-20T03:16:26;7.30;;;5.23;;
24435;SDS011;12616;52.470;13.436;2023-12-20T03:18:53;6.20;;;5.00;;
24435;SDS011;12616;52.470;13.436;2023-12-20T03:21:19;6.45;;;5.88;;
24435;SDS011;12616;52.470;13.436;2023-12-20T03:23:47;6.40;;;5.80;;
24435;SDS011;12616;52.470;13.436;2023-12-20T03:26:14;9.15;;;5.22;;
24435;SDS011;12616;52.470;13.436;2023-12-20T03:28:42;6.82;;;4.97;;
24435;SDS011;12616;52.470;13.436;2023-12-20T03:31:11;6.13;;;4.80;;
24435;SDS011;12616;52.470;13.436;2023-12-20T03:33:37;6.05;;;3.47;;
24435;SDS011;12616;52.470;13.436;2023-12-20T03:36:04;7.97;;;4.87;;
24435;SDS011;12616;52.470;13.436;2023-12-20T03:38:31;9.27;;;4.57;;
24435;SDS011;12616;52.470;13.436;2023-12-20T03:40:58;6.45;;;5.20;;
24435;SDS011;12616;52.470;13.436;2023-12-20T03:43:25;5.65;;;4.05;;
24435;SDS011;12616;52.470;13.436;2023-12-20T03:45:52;10.32;;;4.78;;
24435;SDS011;12616;52.470;13.436;2023-12-20T03:48:20;4.85;;;3.10;;
24435;SDS011;12616;52.470;13.436;2023-12-20T03:50:47;10.75;;;4.00;;
24435;SDS011;12616;52.470;13.436;2023-12-20T03:53:13;5.33;;;3.80;;
24435;SDS011;12616;52.470;13.436;2023-12-20T03:55:40;7.20;;;5.40;;
24435;SDS011;12616;52.470;13.436;2023-12-20T03:58:07;9.13;;;6.10;;
24435;SDS011;12616;52.470;13.436;2023-12-20T04:00:34;10.77;;;5.90;;
24435;SDS011;12616;52.470;13.436;2023-12-20T04:03:01;5.70;;;3.70;;
24435;SDS011;12616;52.470;13.436;2023-12-20T04:05:29;5.63;;;3.30;;
24435;SDS011;12616;52.470;13.436;2023-12-20T04:07:56;5.10;;;3.13;;
24435;SDS011;12616;52.470;13.436;2023-12-20T04:10:23;6.05;;;2.95;;
24435;SDS011;12616;52.470;13.436;2023-12-20T04:12:49;6.90;;;3.60;;
24435;SDS011;12616;52.470;13.436;2023-12-20T04:15:16;5.03;;;3.30;;
24435;SDS011;12616;52.470;13.436;2023-12-20T04:17:43;8.05;;;3.08;;
24435;SDS011;12616;52.470;13.436;2023-12-20T04:20:10;6.53;;;3.27;;
24435;SDS011;12616;52.470;13.436;2023-12-20T04:22:38;8.07;;;3.37;;
24435;SDS011;12616;52.470;13.436;2023-12-20T04:25:05;5.13;;;2.95;;
24435;SDS011;12616;52.470;13.436;2023-12-20T04:27:32;5.23;;;3.97;;
24435;SDS011;12616;52.470;13.436;2023-12-20T04:29:59;12.45;;;3.10;;
24435;SDS011;12616;52.470;13.436;2023-12-20T04:32:26;6.07;;;3.60;;
24435;SDS011;12616;52.470;13.436;2023-12-20T04:34:52;5.80;;;2.80;;
24435;SDS011;12616;52.470;13.436;2023-12-20T04:37:19;5.38;;;2.85;;
24435;SDS011;12616;52.470;13.436;2023-12-20T04:39:47;9.18;;;3.00;;
24435;SDS011;12616;52.470;13.436;2023-12-20T04:42:15;5.03;;;2.50;;
24435;SDS011;12616;52.470;13.436;2023-12-20T04:44:42;7.20;;;3.58;;
24435;SDS011;12616;52.470;13.436;2023-12-20T04:47:08;3.92;;;2.30;;
24435;SDS011;12616;52.470;13.436;2023-12-20T04:49:35;6.22;;;2.90;;
24435;SDS011;12616;52.470;13.436;2023-12-20T04:52:02;3.45;;;3.10;;
24435;SDS011;12616;52.470;13.436;2023-12-20T04:54:29;5.70;;;2.45;;
24435;SDS011;12616;52.470;13.436;2023-12-20T04:56:57;7.80;;;2.80;;
24435;SDS011;12616;52.470;13.436;2023-12-20T04:59:24;9.20;;;3.83;;
24435;SDS011;12616;52.470;13.436;2023-12-20T05:01:51;4.60;;;3.08;;
24435;SDS011;12616;52.470;13.436;2023-12-20T05:04:18;5.28;;;3.05;;
24435;SDS011;12616;52.470;13.436;2023-12-20T05:06:45;6.97;;;3.83;;
24435;SDS011;12616;52.470;13.436;2023-12-20T05:09:12;6.88;;;3.40;;
24435;SDS011;12616;52.470;13.436;2023-12-20T05:11:39;6.72;;;3.58;;
24435;SDS011;12616;52.470;13.436;2023-12-20T05:14:07;9.07;;;2.75;;
24435;SDS011;12616;52.470;13.436;2023-12-20T05:16:34;4.82;;;2.72;;
24435;SDS011;12616;52.470;13.436;2023-12-20T05:19:00;6.97;;;3.35;;
24435;SDS011;12616;52.470;13.436;2023-12-20T05:21:31;4.80;;;2.90;;
24435;SDS011;12616;52.470;13.436;2023-12-20T05:23:58;10.65;;;3.13;;
24435;SDS011;12616;52.470;13.436;2023-12-20T05:26:25;4.72;;;2.83;;
24435;SDS011;12616;52.470;13.436;2023-12-20T05:28:52;6.85;;;2.75;;
24435;SDS011;12616;52.470;13.436;2023-12-20T05:31:20;6.93;;;2.75;;
24435;SDS011;12616;52.470;13.436;2023-12-20T05:33:47;4.90;;;2.28;;
24435;SDS011;12616;52.470;13.436;2023-12-20T05:36:14;8.77;;;2.53;;
24435;SDS011;12616;52.470;13.436;2023-12-20T05:38:40;5.38;;;4.22;;
24435;SDS011;12616;52.470;13.436;2023-12-20T05:41:07;6.78;;;2.60;;
24435;SDS011;12616;52.470;13.436;2023-12-20T05:43:34;5.93;;;3.00;;
24435;SDS011;12616;52.470;13.436;2023-12-20T05:46:01;9.18;;;2.95;;
24435;SDS011;12616;52.470;13.436;2023-12-20T05:48:29;4.40;;;2.70;;
24435;SDS011;12616;52.470;13.436;2023-12-20T05:50:56;8.90;;;2.72;;
24435;SDS011;12616;52.470;13.436;2023-12-20T05:53:24;4.82;;;2.50;;
24435;SDS011;12616;52.470;13.436;2023-12-20T05:55:50;10.63;;;2.95;;
24435;SDS011;12616;52.470;13.436;2023-12-20T05:58:17;6.85;;;4.57;;
24435;SDS011;12616;52.470;13.436;2023-12-20T06:00:44;4.50;;;2.47;;
24435;SDS011;12616;52.470;13.436;2023-12-20T06:03:11;11.85;;;2.78;;
24435;SDS011;12616;52.470;13.436;2023-12-20T06:05:39;4.82;;;2.10;;
24435;SDS011;12616;52.470;13.436;2023-12-20T06:08:06;10.82;;;2.92;;
24435;SDS011;12616;52.470;13.436;2023-12-20T06:10:33;2.70;;;2.28;;
24435;SDS011;12616;52.470;13.436;2023-12-20T06:13:00;14.10;;;2.80;;
24435;SDS011;12616;52.470;13.436;2023-12-20T06:15:26;7.93;;;2.38;;
24435;SDS011;12616;52.470;13.436;2023-12-20T06:17:53;9.05;;;2.63;;
24435;SDS011;12616;52.470;13.436;2023-12-20T06:20:20;4.50;;;2.40;;
24435;SDS011;12616;52.470;13.436;2023-12-20T06:22:48;4.22;;;2.58;;
24435;SDS011;12616;52.470;13.436;2023-12-20T06:25:15;7.65;;;3.03;;
24435;SDS011;12616;52.470;13.436;2023-12-20T06:27:42;5.22;;;2.25;;
24435;SDS011;12616;52.470;13.436;2023-12-20T06:30:09;8.00;;;3.55;;
24435;SDS011;12616;52.470;13.436;2023-12-20T06:32:36;7.80;;;3.10;;
24435;SDS011;12616;52.470;13.436;2023-12-20T06:35:04;5.75;;;2.72;;
24435;SDS011;12616;52.470;13.436;2023-12-20T06:37:32;5.70;;;3.30;;
24435;SDS011;12616;52.470;13.436;2023-12-20T06:40:00;8.13;;;4.30;;
24435;SDS011;12616;52.470;13.436;2023-12-20T06:42:27;7.88;;;3.00;;
24435;SDS011;12616;52.470;13.436;2023-12-20T06:44:54;9.35;;;3.90;;
24435;SDS011;12616;52.470;13.436;2023-12-20T06:47:21;5.15;;;2.80;;
24435;SDS011;12616;52.470;13.436;2023-12-20T06:49:50;7.57;;;3.25;;
24435;SDS011;12616;52.470;13.436;2023-12-20T06:52:17;9.05;;;3.83;;
24435;SDS011;12616;52.470;13.436;2023-12-20T06:54:44;10.63;;;3.10;;
24435;SDS011;12616;52.470;13.436;2023-12-20T06:57:12;5.13;;;3.20;;
24435;SDS011;12616;52.470;13.436;2023-12-20T06:59:39;17.20;;;4.07;;
24435;SDS011;12616;52.470;13.436;2023-12-20T07:02:06;7.22;;;3.28;;
24435;SDS011;12616;52.470;13.436;2023-12-20T07:04:34;3.83;;;2.85;;
24435;SDS011;12616;52.470;13.436;2023-12-20T07:07:05;12.63;;;4.15;;
24435;SDS011;12616;52.470;13.436;2023-12-20T07:09:32;6.68;;;2.42;;
24435;SDS011;12616;52.470;13.436;2023-12-20T07:11:59;9.50;;;3.95;;
24435;SDS011;12616;52.470;13.436;2023-12-20T07:14:27;10.10;;;4.65;;
24435;SDS011;12616;52.470;13.436;2023-12-20T07:16:54;10.10;;;4.05;;
24435;SDS011;12616;52.470;13.436;2023-12-20T07:19:21;4.13;;;3.50;;
24435;SDS011;12616;52.470;13.436;2023-12-20T07:21:47;9.70;;;5.10;;
24435;SDS011;12616;52.470;13.436;2023-12-20T07:24:14;4.28;;;3.40;;
24435;SDS011;12616;52.470;13.436;2023-12-20T07:26:41;9.38;;;3.47;;
24435;SDS011;12616;52.470;13.436;2023-12-20T07:29:08;5.53;;;3.13;;
24435;SDS011;12616;52.470;13.436;2023-12-20T07:31:36;12.70;;;3.88;;
24435;SDS011;12616;52.470;13.436;2023-12-20T07:34:03;5.85;;;2.65;;
24435;SDS011;12616;52.470;13.436;2023-12-20T07:36:30;9.32;;;3.97;;
24435;SDS011;12616;52.470;13.436;2023-12-20T07:38:57;5.57;;;3.67;;
24435;SDS011;12616;52.470;13.436;2023-12-20T07:41:24;5.53;;;3.35;;
24435;SDS011;12616;52.470;13.436;2023-12-20T07:43:51;11.23;;;5.57;;
24435;SDS011;12616;52.470;13.436;2023-12-20T07:46:18;9.40;;;3.38;;
24435;SDS011;12616;52.470;13.436;2023-12-20T07:48:50;5.22;;;2.92;;
24435;SDS011;12616;52.470;13.436;2023-12-20T07:51:16;9.20;;;2.95;;
24435;SDS011;12616;52.470;13.436;2023-12-20T07:53:44;4.38;;;2.75;;
24435;SDS011;12616;52.470;13.436;2023-12-20T07:56:14;5.75;;;3.00;;
24435;SDS011;12616;52.470;13.436;2023-12-20T07:58:41;8.25;;;2.97;;
24435;SDS011;12616;52.470;13.436;2023-12-20T08:01:08;9.77;;;3.30;;
24435;SDS011;12616;52.470;13.436;2023-12-20T08:03:35;7.45;;;2.60;;
24435;SDS011;12616;52.470;13.436;2023-12-20T08:06:03;4.07;;;2.33;;
24435;SDS011;12616;52.470;13.436;2023-12-20T08:08:30;3.53;;;2.60;;
24435;SDS011;12616;52.470;13.436;2023-12-20T08:10:57;7.82;;;3.40;;
24435;SDS011;12616;52.470;13.436;2023-12-20T08:13:25;6.70;;;2.90;;
24435;SDS011;12616;52.470;13.436;2023-12-20T08:15:52;8.13;;;2.80;;
24435;SDS011;12616;52.470;13.436;2023-12-20T08:18:21;4.97;;;3.45;;
24435;SDS011;12616;52.470;13.436;2023-12-20T08:20:47;5.80;;;2.78;;
24435;SDS011;12616;52.470;13.436;2023-12-20T08:23:16;4.70;;;3.10;;
24435;SDS011;12616;52.470;13.436;2023-12-20T08:25:42;7.57;;;2.35;;
24435;SDS011;12616;52.470;13.436;2023-12-20T08:28:09;7.90;;;3.15;;
24435;SDS011;12616;52.470;13.436;2023-12-20T08:30:36;4.82;;;2.30;;
24435;SDS011;12616;52.470;13.436;2023-12-20T08:33:03;7.63;;;3.33;;
24435;SDS011;12616;52.470;13.436;2023-12-20T08:35:32;7.75;;;2.40;;
24435;SDS011;12616;52.470;13.436;2023-12-20T08:37:59;8.43;;;2.90;;
24435;SDS011;12616;52.470;13.436;2023-12-20T08:40:27;6.78;;;3.13;;
24435;SDS011;12616;52.470;13.436;2023-12-20T08:42:54;5.50;;;3.25;;
24435;SDS011;12616;52.470;13.436;2023-12-20T08:45:21;5.32;;;3.08;;
24435;SDS011;12616;52.470;13.436;2023-12-20T08:47:48;7.55;;;2.60;;
24435;SDS011;12616;52.470;13.436;2023-12-20T08:50:15;6.28;;;2.72;;
24435;SDS011;12616;52.470;13.436;2023-12-20T08:52:42;11.02;;;3.00;;
24435;SDS011;12616;52.470;13.436;2023-12-20T08:55:08;4.22;;;2.75;;
24435;SDS011;12616;52.470;13.436;2023-12-20T08:57:37;10.93;;;3.20;;
24435;SDS011;12616;52.470;13.436;2023-12-20T09:00:04;6.03;;;2.33;;
24435;SDS011;12616;52.470;13.436;2023-12-20T09:02:33;2.53;;;2.20;;
24435;SDS011;12616;52.470;13.436;2023-12-20T09:05:01;5.38;;;3.45;;
24435;SDS011;12616;52.470;13.436;2023-12-20T09:07:28;5.32;;;2.90;;
24435;SDS011;12616;52.470;13.436;2023-12-20T09:09:56;3.83;;;2.30;;
24435;SDS011;12616;52.470;13.436;2023-12-20T09:12:23;9.20;;;2.55;;
24435;SDS011;12616;52.470;13.436;2023-12-20T09:14:51;11.13;;;3.10;;
24435;SDS011;12616;52.470;13.436;2023-12-20T09:17:19;9.70;;;3.33;;
24435;SDS011;12616;52.470;13.436;2023-12-20T09:19:47;8.32;;;2.42;;
24435;SDS011;12616;52.470;13.436;2023-12-20T09:22:14;4.70;;;2.90;;
24435;SDS011;12616;52.470;13.436;2023-12-20T09:24:42;5.53;;;3.05;;
24435;SDS011;12616;52.470;13.436;2023-12-20T09:27:09;9.93;;;3.20;;
24435;SDS011;12616;52.470;13.436;2023-12-20T09:29:36;4.93;;;3.30;;
24435;SDS011;12616;52.470;13.436;2023-12-20T09:32:05;12.52;;;2.63;;
24435;SDS011;12616;52.470;13.436;2023-12-20T09:34:32;3.67;;;2.60;;
24435;SDS011;12616;52.470;13.436;2023-12-20T09:36:59;5.13;;;2.63;;
24435;SDS011;12616;52.470;13.436;2023-12-20T09:39:28;9.35;;;3.10;;
24435;SDS011;12616;52.470;13.436;2023-12-20T09:41:59;8.65;;;3.30;;
24435;SDS011;12616;52.470;13.436;2023-12-20T09:44:27;6.10;;;2.95;;
24435;SDS011;12616;52.470;13.436;2023-12-20T09:46:54;6.00;;;2.78;;
24435;SDS011;12616;52.470;13.436;2023-12-20T09:49:23;7.03;;;3.35;;
24435;SDS011;12616;52.470;13.436;2023-12-20T09:51:53;7.40;;;2.80;;
24435;SDS011;12616;52.470;13.436;2023-12-20T09:54:20;6.85;;;3.35;;
24435;SDS011;12616;52.470;13.436;2023-12-20T09:56:48;6.95;;;3.03;;
24435;SDS011;12616;52.470;13.436;2023-12-20T09:59:15;13.45;;;6.80;;
24435;SDS011;12616;52.470;13.436;2023-12-20T10:01:42;4.93;;;2.85;;
24435;SDS011;12616;52.470;13.436;2023-12-20T10:04:09;6.35;;;3.58;;
24435;SDS011;12616;52.470;13.436;2023-12-20T10:06:40;4.38;;;2.53;;
24435;SDS011;12616;52.470;13.436;2023-12-20T10:09:07;9.27;;;3.55;;
24435;SDS011;12616;52.470;13.436;2023-12-20T10:11:35;11.50;;;2.70;;
24435;SDS011;12616;52.470;13.436;2023-12-20T10:14:02;4.22;;;2.75;;
24435;SDS011;12616;52.470;13.436;2023-12-20T10:16:29;6.40;;;3.03;;
24435;SDS011;12616;52.470;13.436;2023-12-20T10:18:57;7.55;;;2.80;;
24435;SDS011;12616;52.470;13.436;2023-12-20T10:21:25;5.72;;;2.90;;
24435;SDS011;12616;52.470;13.436;2023-12-20T10:23:53;9.85;;;3.10;;
24435;SDS011;12616;52.470;13.436;2023-12-20T10:26:20;6.43;;;3.95;;
24435;SDS011;12616;52.470;13.436;2023-12-20T10:28:50;7.07;;;3.15;;
24435;SDS011;12616;52.470;13.436;2023-12-20T10:31:27;12.15;;;3.60;;
24435;SDS011;12616;52.470;13.436;2023-12-20T10:33:58;6.30;;;3.40;;
24435;SDS011;12616;52.470;13.436;2023-12-20T10:36:28;6.25;;;2.60;;
24435;SDS011;12616;52.470;13.436;2023-12-20T10:38:57;6.55;;;3.28;;
24435;SDS011;12616;52.470;13.436;2023-12-20T10:41:27;5.57;;;3.60;;
24435;SDS011;12616;52.470;13.436;2023-12-20T10:43:56;5.50;;;2.70;;
24435;SDS011;12616;52.470;13.436;2023-12-20T10:46:24;5.45;;;2.53;;
24435;SDS011;12616;52.470;13.436;2023-12-20T10:48:53;4.72;;;3.25;;
24435;SDS011;12616;52.470;13.436;2023-12-20T10:51:21;10.93;;;3.47;;
24435;SDS011;12616;52.470;13.436;2023-12-20T10:53:49;13.00;;;4.25;;
24435;SDS011;12616;52.470;13.436;2023-12-20T10:56:18;10.07;;;3.10;;
24435;SDS011;12616;52.470;13.436;2023-12-20T10:58:46;9.77;;;2.83;;
24435;SDS011;12616;52.470;13.436;2023-12-20T11:01:14;8.00;;;3.22;;
24435;SDS011;12616;52.470;13.436;2023-12-20T11:03:44;5.20;;;3.30;;
24435;SDS011;12616;52.470;13.436;2023-12-20T11:06:18;6.65;;;3.75;;
24435;SDS011;12616;52.470;13.436;2023-12-20T11:08:54;7.15;;;3.20;;
24435;SDS011;12616;52.470;13.436;2023-12-20T11:11:37;11.35;;;3.20;;
24435;SDS011;12616;52.470;13.436;2023-12-20T11:14:14;11.07;;;3.22;;
24435;SDS011;12616;52.470;13.436;2023-12-20T11:16:44;9.75;;;4.15;;
24435;SDS011;12616;52.470;13.436;2023-12-20T11:19:12;9.20;;;3.50;;
24435;SDS011;12616;52.470;13.436;2023-12-20T11:21:39;7.18;;;3.55;;
24435;SDS011;12616;52.470;13.436;2023-12-20T11:24:06;10.00;;;3.35;;
24435;SDS011;12616;52.470;13.436;2023-12-20T11:26:33;7.95;;;3.00;;
24435;SDS011;12616;52.470;13.436;2023-12-20T11:32:00;4.60;;;2.85;;
24435;SDS011;12616;52.470;13.436;2023-12-20T11:34:28;5.65;;;3.05;;
24435;SDS011;12616;52.470;13.436;2023-12-20T11:36:57;4.13;;;3.83;;
24435;SDS011;12616;52.470;13.436;2023-12-20T11:39:25;16.15;;;7.80;;
24435;SDS011;12616;52.470;13.436;2023-12-20T11:41:54;8.68;;;3.30;;
24435;SDS011;12616;52.470;13.436;2023-12-20T11:44:22;8.82;;;3.33;;
24435;SDS011;12616;52.470;13.436;2023-12-20T11:46:52;6.88;;;3.97;;
24435;SDS011;12616;52.470;13.436;2023-12-20T11:49:22;4.88;;;3.28;;
24435;SDS011;12616;52.470;13.436;2023-12-20T11:51:50;6.00;;;2.60;;
24435;SDS011;12616;52.470;13.436;2023-12-20T11:54:17;7.63;;;2.85;;
24435;SDS011;12616;52.470;13.436;2023-12-20T11:56:45;6.15;;;3.05;;
24435;SDS011;12616;52.470;13.436;2023-12-20T11:59:12;5.65;;;3.05;;
24435;SDS011;12616;52.470;13.436;2023-12-20T12:01:39;3.63;;;2.95;;
24435;SDS011;12616;52.470;13.436;2023-12-20T12:04:07;9.80;;;3.80;;
24435;SDS011;12616;52.470;13.436;2023-12-20T12:06:35;7.78;;;3.17;;
24435;SDS011;12616;52.470;13.436;2023-12-20T12:09:02;7.15;;;3.60;;
24435;SDS011;12616;52.470;13.436;2023-12-20T12:11:29;11.55;;;3.60;;
24435;SDS011;12616;52.470;13.436;2023-12-20T12:13:56;7.00;;;3.17;;
24435;SDS011;12616;52.470;13.436;2023-12-20T12:16:23;10.73;;;3.55;;
24435;SDS011;12616;52.470;13.436;2023-12-20T12:18:57;5.57;;;3.17;;
24435;SDS011;12616;52.470;13.436;2023-12-20T12:21:26;3.88;;;2.75;;
24435;SDS011;12616;52.470;13.436;2023-12-20T12:23:53;5.47;;;3.80;;
24435;SDS011;12616;52.470;13.436;2023-12-20T12:26:31;10.32;;;3.15;;
24435;SDS011;12616;52.470;13.436;2023-12-20T12:28:59;5.30;;;3.17;;
24435;SDS011;12616;52.470;13.436;2023-12-20T12:31:25;9.25;;;3.17;;
24435;SDS011;12616;52.470;13.436;2023-12-20T12:33:52;4.07;;;2.60;;
24435;SDS011;12616;52.470;13.436;2023-12-20T12:36:19;7.15;;;4.05;;
24435;SDS011;12616;52.470;13.436;2023-12-20T12:38:47;4.05;;;3.10;;
24435;SDS011;12616;52.470;13.436;2023-12-20T12:41:14;8.75;;;2.85;;
24435;SDS011;12616;52.470;13.436;2023-12-20T12:43:41;10.18;;;3.38;;
24435;SDS011;12616;52.470;13.436;2023-12-20T12:46:08;6.00;;;2.70;;
24435;SDS011;12616;52.470;13.436;2023-12-20T12:48:35;6.47;;;3.65;;
24435;SDS011;12616;52.470;13.436;2023-12-20T12:51:02;7.82;;;3.42;;
24435;SDS011;12616;52.470;13.436;2023-12-20T12:53:29;3.75;;;2.92;;
24435;SDS011;12616;52.470;13.436;2023-12-20T12:55:57;10.88;;;4.35;;
24435;SDS011;12616;52.470;13.436;2023-12-20T12:58:24;4.75;;;2.92;;
24435;SDS011;12616;52.470;13.436;2023-12-20T13:00:51;8.40;;;3.67;;
24435;SDS011;12616;52.470;13.436;2023-12-20T13:03:18;8.52;;;4.68;;
24435;SDS011;12616;52.470;13.436;2023-12-20T13:05:45;11.35;;;3.53;;
24435;SDS011;12616;52.470;13.436;2023-12-20T13:08:12;8.38;;;3.67;;
24435;SDS011;12616;52.470;13.436;2023-12-20T13:10:39;5.60;;;3.70;;
24435;SDS011;12616;52.470;13.436;2023-12-20T13:13:08;10.13;;;4.45;;
24435;SDS011;12616;52.470;13.436;2023-12-20T13:15:35;8.30;;;4.60;;
24435;SDS011;12616;52.470;13.436;2023-12-20T13:18:02;5.95;;;3.92;;
24435;SDS011;12616;52.470;13.436;2023-12-20T13:20:29;6.13;;;3.70;;
24435;SDS011;12616;52.470;13.436;2023-12-20T13:22:56;5.80;;;4.65;;
24435;SDS011;12616;52.470;13.436;2023-12-20T13:25:23;7.55;;;3.75;;
24435;SDS011;12616;52.470;13.436;2023-12-20T13:27:50;7.40;;;3.80;;
24435;SDS011;12616;52.470;13.436;2023-12-20T13:30:18;13.70;;;3.83;;
24435;SDS011;12616;52.470;13.436;2023-12-20T13:32:45;9.13;;;6.53;;
24435;SDS011;12616;52.470;13.436;2023-12-20T13:35:12;7.50;;;4.05;;
24435;SDS011;12616;52.470;13.436;2023-12-20T13:37:39;5.65;;;2.60;;
24435;SDS011;12616;52.470;13.436;2023-12-20T13:40:06;3.17;;;2.10;;
24435;SDS011;12616;52.470;13.436;2023-12-20T13:42:34;4.18;;;2.08;;
24435;SDS011;12616;52.470;13.436;2023-12-20T13:45:01;6.95;;;2.30;;
24435;SDS011;12616;52.470;13.436;2023-12-20T13:47:31;7.30;;;2.03;;
24435;SDS011;12616;52.470;13.436;2023-12-20T13:49:58;2.22;;;2.13;;
24435;SDS011;12616;52.470;13.436;2023-12-20T13:52:24;3.47;;;2.17;;
24435;SDS011;12616;52.470;13.436;2023-12-20T13:54:51;4.60;;;2.08;;
24435;SDS011;12616;52.470;13.436;2023-12-20T13:57:18;4.43;;;2.38;;
24435;SDS011;12616;52.470;13.436;2023-12-20T13:59:45;3.50;;;2.53;;
24435;SDS011;12616;52.470;13.436;2023-12-20T14:02:12;2.47;;;2.10;;
24435;SDS011;12616;52.470;13.436;2023-12-20T14:04:40;4.10;;;1.90;;
24435;SDS011;12616;52.470;13.436;2023-12-20T14:07:07;3.78;;;3.45;;
24435;SDS011;12616;52.470;13.436;2023-12-20T14:09:35;2.60;;;1.67;;
24435;SDS011;12616;52.470;13.436;2023-12-20T14:12:02;4.13;;;2.67;;
24435;SDS011;12616;52.470;13.436;2023-12-20T14:14:29;1.67;;;1.50;;
24435;SDS011;12616;52.470;13.436;2023-12-20T14:16:56;2.80;;;1.95;;
24435;SDS011;12616;52.470;13.436;2023-12-20T14:19:22;4.15;;;2.20;;
24435;SDS011;12616;52.470;13.436;2023-12-20T14:21:50;2.75;;;1.65;;
24435;SDS011;12616;52.470;13.436;2023-12-20T14:24:17;2.72;;;2.53;;
24435;SDS011;12616;52.470;13.436;2023-12-20T14:26:44;2.00;;;1.30;;
24435;SDS011;12616;52.470;13.436;2023-12-20T14:29:11;2.28;;;1.90;;
24435;SDS011;12616;52.470;13.436;2023-12-20T14:31:38;1.80;;;1.70;;
24435;SDS011;12616;52.470;13.436;2023-12-20T14:34:05;2.65;;;1.70;;
24435;SDS011;12616;52.470;13.436;2023-12-20T14:36:33;2.28;;;1.30;;
24435;SDS011;12616;52.470;13.436;2023-12-20T14:39:02;2.53;;;2.30;;